Time;durP1;ratioP1;P1;durP2;ratioP2;P2;SDS_P1;SDS_P2;PMS_P1;PMS_P2;Temp;Humidity;BMP_temperature;BMP_pressure;BME280_temperature;BME280_humidity;BME280_pressure;Samples;Min_cycle;Max_cycle;Signal;HPM_P1;HPM_P2
2023/06/05 00:01:26;;;;;;;7.10;3.92;;;;;;;9.17;62.62;99720.28;5050709;28;20053;-72
2023/06/05 00:03:54;;;;;;;8.45;3.75;;;;;;;9.22;62.47;99718.19;5032593;28;20049;-72
2023/06/05 00:06:21;;;;;;;7.53;3.92;;;;;;;9.26;61.95;99718.81;5049995;28;20048;-71
2023/06/05 00:08:47;;;;;;;6.85;4.95;;;;;;;9.30;62.18;99715.03;5035187;28;20063;-75
2023/06/05 00:11:38;;;;;;;9.23;4.70;;;;;;;9.32;62.04;99713.13;5032211;28;20071;-71
2023/06/05 00:14:05;;;;;;;4.35;3.40;;;;;;;9.31;62.23;99706.09;5034645;28;20036;-71
2023/06/05 00:16:30;;;;;;;5.93;3.15;;;;;;;9.33;61.15;99710.38;5032755;28;20052;-74
2023/06/05 00:18:56;;;;;;;5.63;3.55;;;;;;;9.32;61.85;99715.78;5051173;28;20498;-76
2023/06/05 00:21:25;;;;;;;8.02;4.05;;;;;;;9.33;61.36;99712.16;5027833;28;20048;-71
2023/06/05 00:24:15;;;;;;;7.25;4.05;;;;;;;9.40;62.32;99716.97;5034732;28;20055;-74
2023/06/05 00:26:42;;;;;;;6.47;4.25;;;;;;;9.38;62.07;99723.34;5022168;28;20039;-75
2023/06/05 00:29:07;;;;;;;10.07;4.18;;;;;;;9.38;62.08;99718.03;5034866;28;20044;-72
2023/06/05 00:31:33;;;;;;;5.82;4.35;;;;;;;9.40;61.72;99727.63;5016932;28;20029;-73
2023/06/05 00:33:58;;;;;;;8.63;4.10;;;;;;;9.40;62.23;99724.09;5050079;28;20044;-72
2023/06/05 00:36:25;;;;;;;6.13;3.63;;;;;;;9.45;61.82;99711.38;5049815;28;20624;-73
2023/06/05 00:38:52;;;;;;;6.10;4.00;;;;;;;9.38;61.51;99712.72;5034722;28;20044;-71
2023/06/05 00:41:18;;;;;;;5.97;3.92;;;;;;;9.35;61.79;99710.28;5032846;28;20059;-70
2023/06/05 00:43:44;;;;;;;4.90;3.30;;;;;;;9.38;61.38;99696.75;5031598;28;20045;-74
2023/06/05 00:46:11;;;;;;;5.10;3.55;;;;;;;9.38;61.63;99712.72;5035467;28;20055;-75
2023/06/05 00:48:39;;;;;;;6.50;3.97;;;;;;;9.38;61.87;99707.38;5034915;28;20052;-75
2023/06/05 00:51:07;;;;;;;5.88;3.30;;;;;;;9.41;61.83;99707.19;5034564;28;20059;-73
2023/06/05 00:54:00;;;;;;;4.95;3.13;;;;;;;9.44;62.07;99718.50;5033679;28;20041;-74
2023/06/05 00:56:25;;;;;;;6.45;3.55;;;;;;;9.38;61.63;99710.03;5032569;28;20518;-75
2023/06/05 00:58:54;;;;;;;7.07;3.47;;;;;;;9.40;61.83;99709.00;5016397;28;20052;-73
2023/06/05 01:01:24;;;;;;;7.40;3.30;;;;;;;9.41;61.53;99729.34;5031957;28;20047;-74
2023/06/05 01:03:50;;;;;;;5.40;3.30;;;;;;;9.46;61.11;99721.06;5032282;28;20052;-72
2023/06/05 01:06:17;;;;;;;6.40;3.50;;;;;;;9.45;61.44;99712.22;5049759;28;20048;-74
2023/06/05 01:08:46;;;;;;;8.30;3.63;;;;;;;9.42;61.47;99714.22;5032719;28;20142;-73
2023/06/05 01:11:38;;;;;;;6.57;3.97;;;;;;;9.46;61.63;99707.75;5033233;28;20040;-75
2023/06/05 01:14:15;;;;;;;5.03;3.38;;;;;;;9.51;61.75;99713.63;5034376;28;20051;-71
2023/06/05 01:16:56;;;;;;;6.97;2.85;;;;;;;9.45;61.88;99722.00;5032891;28;20048;-75
2023/06/05 01:19:28;;;;;;;4.70;3.25;;;;;;;9.45;62.32;99706.06;5031943;28;20052;-74
2023/06/05 01:21:57;;;;;;;5.55;3.50;;;;;;;9.48;61.98;99712.97;5026850;28;20045;-73
2023/06/05 01:24:25;;;;;;;4.68;3.60;;;;;;;9.47;62.68;99720.13;5034324;28;20041;-76
2023/06/05 01:27:17;;;;;;;5.40;3.65;;;;;;;9.58;61.81;99719.41;5034113;28;20028;-74
2023/06/05 01:30:30;;;;;;;6.10;3.35;;;;;;;9.63;62.30;99714.63;5032740;28;20040;-73
2023/06/05 01:36:19;;;;;;;4.72;3.80;;;;;;;9.52;61.74;99715.31;4938092;28;20136;-74
2023/06/05 01:38:48;;;;;;;6.40;3.10;;;;;;;9.55;62.19;99715.13;4916669;28;20054;-74
2023/06/05 01:41:17;;;;;;;4.32;3.38;;;;;;;9.55;61.57;99715.13;4945456;28;20054;-76
2023/06/05 01:43:45;;;;;;;6.57;3.75;;;;;;;9.60;61.14;99712.16;4952733;28;20065;-76
2023/06/05 01:46:14;;;;;;;11.10;4.13;;;;;;;9.65;61.98;99686.09;4952548;28;20463;-76
2023/06/05 01:48:40;;;;;;;6.43;3.22;;;;;;;9.69;61.44;99706.22;4945433;28;20093;-76
2023/06/05 01:51:08;;;;;;;4.38;3.50;;;;;;;9.75;61.52;99721.78;4936625;28;20434;-72
2023/06/05 01:53:35;;;;;;;4.90;3.05;;;;;;;9.80;61.47;99720.53;4935854;28;20047;-74
2023/06/05 01:56:03;;;;;;;4.07;3.47;;;;;;;9.83;61.92;99730.97;4952961;28;20516;-75
2023/06/05 01:58:35;;;;;;;7.85;3.53;;;;;;;9.93;62.75;99719.72;4952806;28;20057;-75
2023/06/05 02:01:02;;;;;;;4.93;3.35;;;;;;;9.98;62.06;99728.22;4939152;28;20057;-71
2023/06/05 02:03:53;;;;;;;5.93;4.13;;;;;;;10.09;61.35;99731.00;4952668;28;20528;-74
2023/06/05 02:06:20;;;;;;;4.20;3.33;;;;;;;10.02;61.27;99725.25;4952777;28;20049;-72
2023/06/05 02:09:12;;;;;;;6.57;3.63;;;;;;;10.05;61.39;99725.03;4951455;28;20061;-76
2023/06/05 02:11:42;;;;;;;6.40;3.80;;;;;;;10.05;60.71;99729.50;4923819;28;20396;-76
2023/06/05 02:14:35;;;;;;;7.20;3.60;;;;;;;10.13;61.80;99692.56;5027956;28;20096;-75
2023/06/05 02:17:06;;;;;;;6.35;3.47;;;;;;;10.17;61.59;99744.66;5037839;28;20514;-75
2023/06/05 02:19:35;;;;;;;7.85;3.70;;;;;;;10.26;61.61;99733.44;5037639;28;20414;-75
2023/06/05 02:22:01;;;;;;;4.85;3.70;;;;;;;10.25;61.49;99717.53;5036779;28;20422;-75
2023/06/05 02:24:31;;;;;;;6.40;3.80;;;;;;;10.29;61.16;99725.19;5032990;28;20044;-68
2023/06/05 02:26:57;;;;;;;5.53;3.83;;;;;;;10.31;60.81;99736.63;5037024;28;20834;-71
2023/06/05 02:29:23;;;;;;;5.53;3.13;;;;;;;10.35;61.26;99734.59;5037064;28;20036;-69
2023/06/05 02:31:52;;;;;;;5.97;3.65;;;;;;;10.34;61.20;99736.41;5035375;28;20052;-73
2023/06/05 02:37:36;;;;;;;;;;;;;;;10.53;60.50;99736.84;5037058;28;20040;-69
2023/06/05 02:40:29;;;;;;;5.18;3.25;;;;;;;10.41;60.77;99736.81;5036740;28;19920;-70
2023/06/05 02:42:55;;;;;;;4.55;3.30;;;;;;;10.39;61.35;99739.59;5036144;28;20510;-71
2023/06/05 02:45:22;;;;;;;11.45;3.20;;;;;;;10.43;61.50;99741.09;5031114;28;20491;-69
2023/06/05 02:47:54;;;;;;;4.72;2.67;;;;;;;10.45;61.22;99760.50;5032752;28;20055;-69
2023/06/05 02:50:20;;;;;;;5.00;3.30;;;;;;;10.48;61.06;99744.31;5037611;28;20044;-69
2023/06/05 02:52:54;;;;;;;6.40;3.38;;;;;;;10.55;62.46;99742.91;5037768;28;20040;-68
2023/06/05 02:55:45;;;;;;;10.15;3.58;;;;;;;10.63;61.97;99758.38;5017071;28;20053;-73
2023/06/05 02:58:15;;;;;;;6.25;3.67;;;;;;;10.66;61.94;99760.81;5034392;28;20060;-82
2023/06/05 03:00:51;;;;;;;4.53;2.88;;;;;;;10.74;62.55;99754.94;5021057;28;20048;-73
2023/06/05 03:03:25;;;;;;;4.25;2.67;;;;;;;10.74;61.83;99755.78;5036591;28;20075;-72
2023/06/05 03:06:27;;;;;;;6.70;3.05;;;;;;;10.88;61.56;99755.69;5053050;28;20052;-75
2023/06/05 03:08:55;;;;;;;5.70;3.25;;;;;;;10.89;61.84;99769.88;5037006;28;20040;-70
2023/06/05 03:11:46;;;;;;;3.90;2.95;;;;;;;10.99;61.66;99744.25;5036675;28;20059;-72
2023/06/05 03:14:12;;;;;;;3.95;3.20;;;;;;;10.95;61.64;99742.75;5055137;28;20846;-70
2023/06/05 03:16:41;;;;;;;8.13;3.15;;;;;;;10.97;61.36;99740.84;5021597;28;20044;-72
2023/06/05 03:19:13;;;;;;;4.88;3.63;;;;;;;11.06;62.32;99742.00;5023022;28;20047;-72
2023/06/05 03:21:43;;;;;;;6.47;3.30;;;;;;;11.21;61.96;99732.88;5055339;28;20066;-76
2023/06/05 03:24:14;;;;;;;5.30;3.17;;;;;;;11.34;62.53;99738.19;5057081;28;20070;-76
2023/06/05 03:26:44;;;;;;;5.78;3.38;;;;;;;11.45;62.25;99735.56;5040029;28;20052;-76
2023/06/05 03:29:14;;;;;;;6.22;3.25;;;;;;;11.53;62.12;99725.19;5038897;28;20405;-71
2023/06/05 03:31:42;;;;;;;6.72;3.20;;;;;;;11.59;62.27;99732.75;5071486;28;20043;-71
2023/06/05 03:34:08;;;;;;;7.20;3.22;;;;;;;11.64;61.47;99730.56;5054878;28;20040;-72
2023/06/05 03:36:37;;;;;;;12.77;3.00;;;;;;;11.69;61.27;99725.75;5054701;28;20058;-70
2023/06/05 03:39:06;;;;;;;6.25;3.25;;;;;;;11.69;60.61;99712.41;5037849;28;20039;-72
2023/06/05 03:41:33;;;;;;;5.97;3.40;;;;;;;11.61;60.68;99721.00;5037825;28;20048;-71
2023/06/05 03:44:03;;;;;;;5.53;3.50;;;;;;;11.57;61.27;99718.66;5055691;28;20063;-72
2023/06/05 03:46:57;;;;;;;5.38;3.78;;;;;;;11.57;61.37;99708.81;5057472;28;20059;-71
2023/06/05 03:52:17;;;;;;;8.40;4.25;;;;;;;11.49;62.24;99732.59;5020051;28;20059;-71
2023/06/05 03:55:09;;;;;;;6.60;3.50;;;;;;;11.56;61.90;99716.94;5038130;28;20048;-71
2023/06/05 03:57:41;;;;;;;8.07;4.40;;;;;;;11.24;62.48;99733.53;5038797;28;20074;-71
2023/06/05 04:00:14;;;;;;;5.77;3.60;;;;;;;11.16;63.07;99714.56;5053510;28;20044;-73
2023/06/05 04:05:40;;;;;;;8.50;3.70;;;;;;;11.16;63.68;99724.38;5037390;28;20048;-73
2023/06/05 04:08:06;;;;;;;4.47;3.30;;;;;;;11.12;63.48;99723.72;5021027;28;20043;-72
2023/06/05 04:10:34;;;;;;;9.38;4.32;;;;;;;11.16;64.82;99751.91;5053982;28;20051;-72
2023/06/05 04:12:59;;;;;;;5.40;3.30;;;;;;;11.24;65.12;99714.84;5055546;28;20406;-72
2023/06/05 04:15:27;;;;;;;7.47;4.13;;;;;;;11.29;65.53;99731.34;5055384;28;20027;-73
2023/06/05 04:17:53;;;;;;;5.00;3.50;;;;;;;11.30;65.60;99732.19;5055246;28;20039;-71
2023/06/05 04:20:22;;;;;;;5.78;3.70;;;;;;;11.29;65.77;99726.00;5037176;28;20036;-72
2023/06/05 04:22:48;;;;;;;4.13;3.42;;;;;;;11.28;66.13;99729.69;5054239;28;20051;-72
2023/06/05 04:25:15;;;;;;;5.07;3.63;;;;;;;11.32;65.99;99735.63;5029220;28;20044;-72
2023/06/05 04:27:49;;;;;;;6.40;3.70;;;;;;;11.47;66.44;99736.31;5049155;28;20051;-70
2023/06/05 04:30:21;;;;;;;5.50;3.70;;;;;;;11.64;65.73;99742.09;5054889;28;20524;-71
2023/06/05 04:32:54;;;;;;;7.72;3.58;;;;;;;11.83;65.89;99725.63;5036105;28;20052;-71
2023/06/05 04:35:29;;;;;;;6.88;4.10;;;;;;;12.17;65.85;99734.59;5038422;28;20532;-76
2023/06/05 04:37:56;;;;;;;4.60;3.40;;;;;;;12.38;64.79;99731.22;5055076;28;20398;-76
2023/06/05 04:40:48;;;;;;;5.18;3.60;;;;;;;12.59;63.86;99733.06;5055326;28;20043;-76
2023/06/05 04:43:15;;;;;;;7.20;3.90;;;;;;;12.59;63.26;99762.50;5038171;28;20048;-77
2023/06/05 04:45:41;;;;;;;5.20;3.33;;;;;;;12.60;63.21;99726.75;5038161;28;20063;-75
2023/06/05 04:48:09;;;;;;;5.55;3.72;;;;;;;12.61;62.91;99728.47;5026568;28;20044;-75
2023/06/05 04:50:37;;;;;;;6.35;3.67;;;;;;;12.62;63.28;99734.66;5018415;28;20052;-76
2023/06/05 04:53:10;;;;;;;22.60;12.98;;;;;;;12.64;63.56;99733.56;5033874;28;20059;-76
2023/06/05 04:55:38;;;;;;;11.68;7.38;;;;;;;12.57;62.99;99721.66;5018134;28;20040;-75
2023/06/05 04:58:11;;;;;;;7.55;4.80;;;;;;;12.56;64.32;99724.44;5036592;28;20522;-76
2023/06/05 05:00:36;;;;;;;5.97;4.10;;;;;;;12.63;64.24;99747.94;5031076;28;20048;-76
2023/06/05 05:03:08;;;;;;;4.97;3.47;;;;;;;12.78;64.14;99716.41;4981190;28;20060;-76
2023/06/05 05:05:36;;;;;;;4.35;3.55;;;;;;;12.85;63.57;99741.72;4992092;28;20056;-76
2023/06/05 05:08:06;;;;;;;5.57;3.60;;;;;;;12.94;63.69;99729.44;5035002;28;20048;-76
2023/06/05 05:10:36;;;;;;;7.07;3.67;;;;;;;12.94;63.77;99724.09;5018272;28;20044;-76
2023/06/05 05:13:03;;;;;;;5.70;3.58;;;;;;;13.02;62.86;99722.50;5018842;28;20055;-76
2023/06/05 05:15:32;;;;;;;7.65;3.90;;;;;;;12.99;62.97;99735.25;5017244;28;20039;-76
2023/06/05 05:18:03;;;;;;;5.75;3.67;;;;;;;13.01;63.70;99727.97;5034289;28;20502;-76
2023/06/05 05:20:29;;;;;;;5.93;3.70;;;;;;;13.19;64.19;99739.06;5034338;28;20051;-76
2023/06/05 05:22:58;;;;;;;5.18;3.63;;;;;;;13.27;63.48;99729.44;5000640;28;20410;-76
2023/06/05 05:25:33;;;;;;;6.35;4.18;;;;;;;13.44;63.39;99725.38;5034119;28;20414;-74
2023/06/05 05:27:58;;;;;;;3.80;3.33;;;;;;;13.60;63.02;99722.28;5037998;28;20041;-78
2023/06/05 05:30:27;;;;;;;4.88;2.88;;;;;;;13.69;61.64;99726.88;5018933;28;20517;-76
2023/06/05 05:32:55;;;;;;;4.65;3.13;;;;;;;13.70;61.30;99729.44;4997979;28;20045;-75
2023/06/05 05:35:20;;;;;;;4.53;3.33;;;;;;;13.64;61.55;99715.72;5033091;28;20494;-75
2023/06/05 05:41:01;;;;;;;5.77;3.50;;;;;;;13.92;61.96;99730.31;5034520;28;20040;-74
2023/06/05 05:43:27;;;;;;;7.68;3.78;;;;;;;13.96;62.03;99734.44;5016225;28;20047;-76
2023/06/05 05:45:54;;;;;;;5.47;3.63;;;;;;;13.96;61.71;99723.72;5017811;28;20422;-75
2023/06/05 05:48:22;;;;;;;4.82;3.70;;;;;;;13.94;62.43;99736.41;5038086;28;20059;-74
2023/06/05 05:53:39;;;;;;;13.20;3.25;;;;;;;13.88;62.49;99726.22;5039078;28;20041;-74
2023/06/05 05:56:08;;;;;;;5.32;3.72;;;;;;;13.81;62.31;99737.44;5038156;28;20483;-76
2023/06/05 05:58:40;;;;;;;3.63;3.15;;;;;;;13.73;62.02;99739.91;5038658;28;20402;-75
2023/06/05 06:01:06;;;;;;;7.18;3.78;;;;;;;13.62;62.24;99731.06;5046235;28;20056;-75
2023/06/05 06:03:37;;;;;;;6.30;3.75;;;;;;;13.56;62.57;99755.66;5039739;28;20052;-76
2023/06/05 06:06:06;;;;;;;6.18;3.20;;;;;;;13.47;62.42;99737.66;5040056;28;20044;-75
2023/06/05 06:08:34;;;;;;;5.43;3.40;;;;;;;13.34;63.23;99733.31;5057841;28;20051;-76
2023/06/05 06:11:00;;;;;;;4.70;3.53;;;;;;;13.31;63.38;99744.28;5058432;28;20454;-75
2023/06/05 06:13:27;;;;;;;5.80;3.80;;;;;;;13.37;63.63;99732.22;5059510;28;20044;-77
2023/06/05 06:15:54;;;;;;;4.93;3.53;;;;;;;13.38;63.45;99745.47;5057933;28;20032;-78
2023/06/05 06:18:21;;;;;;;6.85;3.75;;;;;;;13.49;63.47;99747.28;5040877;28;20055;-77
2023/06/05 06:20:47;;;;;;;6.47;4.30;;;;;;;13.71;63.55;99741.00;5023302;28;20044;-75
2023/06/05 06:23:14;;;;;;;6.78;3.08;;;;;;;13.84;62.84;99741.69;5059207;28;20055;-74
2023/06/05 06:25:43;;;;;;;5.28;3.70;;;;;;;13.96;62.54;99746.03;5040735;28;20090;-74
2023/06/05 06:28:34;;;;;;;6.20;3.20;;;;;;;14.07;61.96;99743.28;5044249;28;20043;-77
2023/06/05 06:31:05;;;;;;;5.13;3.40;;;;;;;14.18;61.90;99734.34;5040424;28;20430;-78
2023/06/05 06:33:31;;;;;;;5.18;3.63;;;;;;;14.70;61.50;99736.09;5059398;28;20048;-78
2023/06/05 06:35:58;;;;;;;5.38;3.40;;;;;;;15.17;59.88;99749.88;5040536;28;20043;-78
2023/06/05 06:38:27;;;;;;;5.88;3.15;;;;;;;15.65;58.90;99723.16;5040760;28;20056;-79
2023/06/05 06:40:55;;;;;;;5.25;3.70;;;;;;;16.80;57.26;99724.88;5024007;28;20051;-76
2023/06/05 06:43:20;;;;;;;6.63;3.72;;;;;;;17.90;53.45;99717.59;5058644;28;20051;-77
2023/06/05 06:45:52;;;;;;;5.68;4.30;;;;;;;18.35;52.03;99689.63;5057986;28;20051;-77
2023/06/05 06:48:23;;;;;;;4.28;3.30;;;;;;;18.62;51.38;99708.41;5059523;28;20043;-77
2023/06/05 06:50:52;;;;;;;3.90;3.17;;;;;;;19.04;49.94;99730.09;5059408;28;20058;-77
2023/06/05 06:53:18;;;;;;;3.92;2.90;;;;;;;19.54;48.11;99694.13;5058190;28;20040;-78
2023/06/05 06:56:15;;;;;;;4.60;3.15;;;;;;;21.62;45.88;99689.56;5057637;28;20399;-78
2023/06/05 06:58:40;;;;;;;3.10;2.70;;;;;;;23.61;42.09;99693.50;5042203;28;20044;-79
2023/06/05 07:01:06;;;;;;;7.00;3.80;;;;;;;24.86;38.95;99700.94;5038499;28;20060;-79
2023/06/05 07:03:33;;;;;;;4.65;3.55;;;;;;;25.78;36.74;99669.72;5021837;28;20044;-76
2023/06/05 07:06:51;;;;;;;6.68;4.00;;;;;;;27.26;36.40;99669.22;5038990;28;20044;-78
2023/06/05 07:09:16;;;;;;;3.67;3.15;;;;;;;28.15;32.98;99660.91;5037295;28;20043;-76
2023/06/05 07:11:41;;;;;;;5.43;3.80;;;;;;;28.64;32.45;99653.75;5038384;28;20040;-76
2023/06/05 07:14:07;;;;;;;4.55;3.58;;;;;;;29.02;31.59;99654.41;5038603;28;20048;-78
2023/06/05 07:19:24;;;;;;;4.53;3.60;;;;;;;31.27;29.24;99648.97;5020194;28;20087;-76
2023/06/05 07:21:55;;;;;;;3.00;2.80;;;;;;;32.16;26.97;99668.63;5036962;28;20061;-75
2023/06/05 07:24:24;;;;;;;2.95;2.78;;;;;;;32.88;26.84;99649.38;5018893;28;20052;-74
2023/06/05 07:27:17;;;;;;;6.53;3.25;;;;;;;33.72;26.83;99647.13;5017921;28;20053;-73
2023/06/05 07:29:45;;;;;;;4.57;3.42;;;;;;;33.87;25.53;99653.66;5034712;28;20040;-73
2023/06/05 07:33:00;;;;;;;4.15;3.17;;;;;;;34.50;23.92;99643.75;5017192;28;20063;-74
2023/06/05 07:35:30;;;;;;;4.07;3.30;;;;;;;33.62;24.30;99647.88;5034881;28;20037;-74
2023/06/05 07:37:57;;;;;;;3.53;3.22;;;;;;;33.71;25.02;99649.06;5035608;28;20032;-74
2023/06/05 07:40:48;;;;;;;9.00;3.90;;;;;;;34.90;23.59;99645.97;5035743;28;20040;-75
2023/06/05 07:46:11;;;;;;;3.65;3.40;;;;;;;34.67;23.58;99657.41;5034570;28;20442;-75
2023/06/05 07:48:37;;;;;;;4.15;3.75;;;;;;;33.97;23.31;99641.06;5034415;28;20036;-75
2023/06/05 07:51:03;;;;;;;3.80;3.50;;;;;;;34.12;23.65;99653.09;5034919;28;20044;-75
2023/06/05 07:53:28;;;;;;;8.10;3.55;;;;;;;34.04;23.35;99638.91;5011598;28;20056;-73
2023/06/05 07:55:55;;;;;;;7.45;4.55;;;;;;;33.17;24.13;99653.66;5041027;28;20063;-74
2023/06/05 07:58:21;;;;;;;5.22;3.30;;;;;;;32.47;24.75;99654.28;5041433;28;20051;-75
2023/06/05 08:00:47;;;;;;;5.20;3.20;;;;;;;32.42;24.98;99643.13;5041901;28;20052;-74
2023/06/05 08:03:19;;;;;;;4.35;2.95;;;;;;;32.30;24.91;99636.88;5033476;28;20410;-75
2023/06/05 08:05:52;;;;;;;6.32;3.40;;;;;;;31.12;25.79;99646.75;5034988;28;20053;-74
2023/06/05 08:08:18;;;;;;;4.93;3.17;;;;;;;29.33;27.37;99647.09;5052100;28;20048;-75
2023/06/05 08:10:45;;;;;;;3.15;2.85;;;;;;;28.07;28.44;99647.47;5034370;28;20490;-75
2023/06/05 08:13:11;;;;;;;3.90;3.10;;;;;;;26.98;30.27;99659.41;5055505;28;20067;-76
2023/06/05 08:15:36;;;;;;;3.67;2.47;;;;;;;25.87;31.36;99627.47;5054629;28;20044;-74
2023/06/05 08:18:02;;;;;;;7.90;3.55;;;;;;;24.78;32.80;99656.66;5055747;28;20051;-76
2023/06/05 08:20:28;;;;;;;3.85;3.40;;;;;;;23.80;33.96;99643.91;5056332;28;20047;-74
2023/06/05 08:22:57;;;;;;;3.33;2.35;;;;;;;22.94;35.35;99685.53;5055336;28;20178;-74
2023/06/05 08:25:48;;;;;;;3.53;2.45;;;;;;;22.23;36.39;99659.78;5052983;28;20047;-73
2023/06/05 08:28:16;;;;;;;4.03;2.70;;;;;;;21.56;38.00;99654.13;5032969;28;20060;-74
2023/06/05 08:30:46;;;;;;;3.13;2.67;;;;;;;21.05;38.87;99659.16;5050496;28;20036;-75
2023/06/05 08:33:13;;;;;;;3.75;2.65;;;;;;;20.63;39.49;99654.06;5054831;28;20048;-75
2023/06/05 08:35:42;;;;;;;6.93;2.90;;;;;;;20.36;40.46;99663.41;5036034;28;20043;-73
2023/06/05 08:38:35;;;;;;;5.28;3.13;;;;;;;20.15;40.63;99660.38;5053321;28;20070;-75
2023/06/05 08:41:10;;;;;;;3.80;2.92;;;;;;;19.99;41.58;99658.50;5054596;28;20063;-74
2023/06/05 08:43:41;;;;;;;3.25;2.42;;;;;;;19.92;41.69;99649.38;5054590;28;20047;-74
2023/06/05 08:46:09;;;;;;;4.15;2.63;;;;;;;20.57;40.59;99650.16;5035758;28;20059;-72
2023/06/05 08:48:53;;;;;;;3.33;2.67;;;;;;;21.88;38.17;99626.78;5054437;28;20036;-73
2023/06/05 08:51:18;;;;;;;3.83;2.75;;;;;;;22.89;36.72;99639.91;5054521;28;20043;-73
2023/06/05 08:54:01;;;;;;;5.18;2.95;;;;;;;25.60;33.51;99630.19;5053271;28;20044;-74
2023/06/05 08:56:27;;;;;;;4.85;3.00;;;;;;;28.88;29.82;99612.59;5054365;28;20047;-74
2023/06/05 08:58:56;;;;;;;3.25;2.70;;;;;;;30.96;26.33;99603.41;5036236;28;20129;-75
2023/06/05 09:01:27;;;;;;;3.40;3.08;;;;;;;33.02;23.93;99552.09;5026492;28;20052;-74
2023/06/05 09:03:54;;;;;;;7.50;2.97;;;;;;;33.36;24.09;99604.44;5016597;28;20055;-75
2023/06/05 09:06:48;;;;;;;4.20;3.60;;;;;;;32.10;24.44;99587.69;5016903;28;20055;-75
2023/06/05 09:12:09;;;;;;;3.37;2.93;;;;;;;28.52;26.90;99596.91;5034670;28;20044;-76
2023/06/05 09:15:15;;;;;;;4.75;3.15;;;;;;;27.51;28.21;99592.63;5017022;28;20143;-78
2023/06/05 09:17:45;;;;;;;3.75;3.05;;;;;;;25.85;30.51;99602.25;5037363;28;20414;-76
2023/06/05 09:20:25;;;;;;;3.97;3.58;;;;;;;25.13;31.37;99586.56;5021268;28;20060;-76
2023/06/05 09:22:53;;;;;;;5.78;2.83;;;;;;;24.24;32.74;99591.94;5039506;28;20044;-76
2023/06/05 09:25:20;;;;;;;3.50;2.85;;;;;;;24.02;33.15;99588.38;4989095;28;20052;-76
2023/06/05 09:28:07;;;;;;;7.25;3.03;;;;;;;24.09;33.23;99588.44;5039431;28;20048;-73
2023/06/05 09:30:53;;;;;;;10.32;3.30;;;;;;;23.31;34.58;99590.19;5017770;28;20049;-76
2023/06/05 09:33:19;;;;;;;5.38;2.80;;;;;;;22.34;35.98;99586.84;5017066;28;20049;-75
2023/06/05 09:35:45;;;;;;;5.15;2.92;;;;;;;21.90;36.07;99611.13;5034871;28;20028;-74
2023/06/05 09:38:27;;;;;;;3.78;2.60;;;;;;;21.93;36.57;99602.63;5037542;28;20052;-75
2023/06/05 09:41:00;;;;;;;4.25;2.63;;;;;;;21.63;36.86;99611.72;5017833;28;20056;-74
2023/06/05 09:43:27;;;;;;;4.93;2.92;;;;;;;21.38;37.95;99621.88;5002565;28;20055;-75
2023/06/05 09:45:55;;;;;;;6.15;3.10;;;;;;;21.03;38.79;99625.94;5020369;28;20407;-76
2023/06/05 09:48:27;;;;;;;5.93;3.70;;;;;;;20.70;40.40;99632.53;5038200;28;20053;-74
2023/06/05 09:50:59;;;;;;;6.15;4.38;;;;;;;20.31;41.71;99650.34;5003431;28;20051;-76
2023/06/05 09:53:29;;;;;;;7.88;3.63;;;;;;;19.93;42.46;99630.28;5036905;28;20713;-75
2023/06/05 09:55:55;;;;;;;3.70;3.25;;;;;;;19.65;42.81;99634.31;5036597;28;20040;-75
2023/06/05 09:58:29;;;;;;;7.80;3.22;;;;;;;19.55;43.54;99637.16;5019620;28;20079;-75
2023/06/05 10:01:00;;;;;;;4.38;2.90;;;;;;;20.85;42.96;99619.94;5021459;28;20043;-75
2023/06/05 10:03:28;;;;;;;6.00;2.90;;;;;;;21.99;41.02;99604.66;5053138;28;20071;-75
2023/06/05 10:05:57;;;;;;;6.60;2.85;;;;;;;22.67;39.67;99603.59;5019641;28;20044;-74
2023/06/05 10:08:27;;;;;;;3.65;2.72;;;;;;;24.04;37.98;99597.19;5036938;28;20043;-75
2023/06/05 10:13:45;;;;;;;3.63;2.95;;;;;;;29.13;31.01;99585.00;5039688;28;20044;-76
2023/06/05 10:16:10;;;;;;;7.15;3.67;;;;;;;30.81;29.19;99518.59;5057969;28;20035;-75
2023/06/05 10:19:03;;;;;;;5.65;3.60;;;;;;;32.03;27.00;99513.41;5058596;28;20071;-76
2023/06/05 10:21:56;;;;;;;4.03;3.72;;;;;;;34.36;25.40;99570.56;5036775;28;20056;-78
2023/06/05 10:24:26;;;;;;;4.00;3.60;;;;;;;36.14;23.41;99572.00;5039154;28;20047;-76
2023/06/05 10:27:11;;;;;;;4.82;4.43;;;;;;;38.20;22.49;99512.09;5019765;28;20458;-76
2023/06/05 10:33:25;;;;;;;6.18;4.13;;;;;;;36.32;23.54;99546.47;5038186;28;20043;-75
2023/06/05 10:36:00;;;;;;;5.00;3.67;;;;;;;33.47;24.82;99543.47;5018587;28;20406;-75
2023/06/05 10:38:27;;;;;;;4.43;3.80;;;;;;;31.15;26.82;99547.13;5052356;28;20059;-74
2023/06/05 10:40:57;;;;;;;4.82;4.00;;;;;;;29.49;28.11;99553.06;5054227;28;20387;-77
2023/06/05 10:43:35;;;;;;;4.47;3.30;;;;;;;28.27;29.50;99554.97;5045055;28;20044;-75
2023/06/05 10:46:22;;;;;;;4.55;3.38;;;;;;;26.69;31.44;99506.72;5055866;28;20051;-76
2023/06/05 10:49:10;;;;;;;6.63;3.30;;;;;;;25.95;32.60;99515.31;5049749;28;20040;-76
2023/06/05 10:51:42;;;;;;;5.57;3.10;;;;;;;25.03;33.53;99565.13;5051497;28;20055;-75
2023/06/05 10:54:17;;;;;;;4.55;3.05;;;;;;;24.56;34.08;99577.69;5057129;28;20044;-75
2023/06/05 10:56:57;;;;;;;5.18;3.78;;;;;;;24.28;34.39;99555.06;5042084;28;20058;-75
2023/06/05 10:59:33;;;;;;;4.40;3.00;;;;;;;23.48;34.37;99569.84;5056393;28;20048;-75
2023/06/05 11:04:42;;;;;;;6.68;4.10;;;;;;;22.37;37.30;99586.44;5056923;28;20044;-74
2023/06/05 11:07:30;;;;;;;5.25;3.22;;;;;;;21.64;40.50;99627.81;5055003;28;20063;-76
2023/06/05 11:10:06;;;;;;;9.38;3.08;;;;;;;20.25;45.09;99664.59;5056130;28;20051;-75
2023/06/05 11:12:38;;;;;;;5.05;3.00;;;;;;;18.93;49.19;99659.28;5056795;28;20130;-76
2023/06/05 11:15:06;;;;;;;6.72;3.70;;;;;;;17.84;52.14;99648.09;5057071;28;20040;-76
2023/06/05 11:18:19;;;;;;;6.53;3.40;;;;;;;17.25;56.52;99629.81;5037582;28;20063;-72
2023/06/05 11:20:44;;;;;;;6.07;2.35;;;;;;;16.44;57.53;99628.78;5032212;28;20494;-72
2023/06/05 11:23:37;;;;;;;5.75;2.90;;;;;;;16.13;59.33;99620.97;5056136;28;20048;-74
2023/06/05 11:26:38;;;;;;;6.00;2.88;;;;;;;16.21;62.13;99618.38;5037707;28;20413;-74
2023/06/05 11:29:12;;;;;;;4.60;2.40;;;;;;;16.15;61.59;99629.69;5056234;28;20079;-75
2023/06/05 11:32:12;;;;;;;5.57;2.65;;;;;;;15.97;58.53;99621.56;5055932;28;20062;-75
2023/06/05 11:34:38;;;;;;;5.82;4.25;;;;;;;15.37;60.34;99627.19;5055698;28;20043;-73
2023/06/05 11:37:17;;;;;;;6.07;3.00;;;;;;;15.22;62.93;99597.25;5039002;28;20047;-77
2023/06/05 11:40:11;;;;;;;4.07;2.83;;;;;;;15.07;63.92;99620.09;5055802;28;20040;-76
2023/06/05 11:42:40;;;;;;;6.90;2.70;;;;;;;14.68;63.30;99613.78;5035895;28;20491;-77
2023/06/05 11:45:11;;;;;;;4.65;2.33;;;;;;;14.53;64.39;99616.84;5055220;28;20055;-72
2023/06/05 11:48:13;;;;;;;5.75;3.05;;;;;;;14.64;65.69;99639.19;5044749;28;20037;-71
2023/06/05 11:51:01;;;;;;;4.28;2.35;;;;;;;14.96;65.37;99634.50;5055413;28;20054;-72
2023/06/05 11:53:37;;;;;;;3.88;3.03;;;;;;;15.12;65.13;99660.81;5052909;28;20039;-73
2023/06/05 11:57:08;;;;;;;5.20;3.08;;;;;;;15.20;65.97;99647.53;5055709;28;20414;-74
2023/06/05 11:59:38;;;;;;;4.28;3.05;;;;;;;14.90;65.73;99657.34;5055257;28;20517;-75
2023/06/05 12:02:05;;;;;;;12.32;3.97;;;;;;;14.81;66.12;99685.00;5038794;28;20044;-75
2023/06/05 12:04:32;;;;;;;3.92;2.80;;;;;;;14.80;66.23;99669.91;5018850;28;20052;-72
2023/06/05 12:06:59;;;;;;;3.67;2.70;;;;;;;14.67;66.59;99666.59;5047921;28;20124;-73
2023/06/05 12:09:25;;;;;;;6.13;2.95;;;;;;;14.50;66.56;99675.28;4996373;28;20503;-71
2023/06/05 12:12:08;;;;;;;3.47;2.58;;;;;;;14.43;67.11;99677.66;5029493;28;20048;-76
2023/06/05 12:14:34;;;;;;;3.40;2.50;;;;;;;14.25;67.44;99671.16;5036212;28;20060;-73
2023/06/05 12:17:09;;;;;;;5.93;4.07;;;;;;;14.29;68.85;99655.66;5017594;28;20060;-72
2023/06/05 12:19:34;;;;;;;4.93;3.75;;;;;;;14.33;69.18;99662.47;5033752;28;20048;-72
2023/06/05 12:22:09;;;;;;;7.18;3.20;;;;;;;14.66;70.23;99654.19;5034314;28;20044;-73
2023/06/05 12:24:34;;;;;;;6.72;4.38;;;;;;;15.00;70.34;99649.34;5035236;28;20041;-75
2023/06/05 12:27:03;;;;;;;4.78;2.97;;;;;;;15.35;69.63;99650.69;5014765;28;20047;-76
2023/06/05 12:29:34;;;;;;;6.35;3.22;;;;;;;15.45;69.28;99641.66;5034005;28;20045;-73
2023/06/05 12:32:02;;;;;;;5.40;3.10;;;;;;;15.43;68.80;99659.75;5018063;28;20083;-79
2023/06/05 12:34:50;;;;;;;4.18;3.30;;;;;;;15.55;69.78;99658.66;5037891;28;20514;-77
2023/06/05 12:37:31;;;;;;;4.82;3.58;;;;;;;15.67;69.90;99645.06;5043470;28;20036;-78